createdAt,value
2022-08-10T00:01:36.032Z,14.97
2022-08-10T00:04:03.325Z,14.96
2022-08-10T00:06:30.217Z,14.94
2022-08-10T00:08:57.176Z,14.91
2022-08-10T00:11:24.645Z,14.89
2022-08-10T00:13:52.146Z,14.87
2022-08-10T00:16:19.344Z,14.87
2022-08-10T00:18:46.126Z,14.84
2022-08-10T00:21:12.901Z,14.85
2022-08-10T00:23:39.824Z,14.82
2022-08-10T00:26:06.743Z,14.81
2022-08-10T00:28:34.177Z,14.89
2022-08-10T00:31:01.101Z,14.88
2022-08-10T00:33:28.066Z,14.85
2022-08-10T00:35:54.825Z,14.59
2022-08-10T00:38:22.472Z,14.33
2022-08-10T00:40:49.463Z,14.30
2022-08-10T00:43:16.934Z,14.39
2022-08-10T00:45:59.330Z,14.51
2022-08-10T00:48:30.516Z,14.61
2022-08-10T00:51:00.600Z,14.66
2022-08-10T00:53:28.542Z,14.80
2022-08-10T00:57:14.591Z,14.92
2022-08-10T00:58:43.951Z,14.92
2022-08-10T01:02:10.097Z,14.90
2022-08-10T01:04:36.175Z,14.90
2022-08-10T01:07:10.226Z,14.87
2022-08-10T01:09:59.710Z,14.88
2022-08-10T01:12:39.043Z,14.87
2022-08-10T01:15:19.413Z,14.87
2022-08-10T01:17:50.534Z,14.84
2022-08-10T01:20:30.079Z,14.75
2022-08-10T01:22:58.042Z,14.64
2022-08-10T01:26:12.372Z,14.58
2022-08-10T01:29:00.865Z,14.70
2022-08-10T01:31:32.974Z,14.72
2022-08-10T01:34:07.862Z,14.73
2022-08-10T01:36:46.409Z,14.74
2022-08-10T01:39:21.666Z,14.72
2022-08-10T01:41:53.528Z,14.68
2022-08-10T01:44:29.434Z,14.66
2022-08-10T01:47:22.360Z,14.63
2022-08-10T01:49:53.901Z,14.59
2022-08-10T01:52:23.978Z,14.59
2022-08-10T01:54:53.323Z,14.64
2022-08-10T01:57:25.800Z,14.72
2022-08-10T02:00:02.104Z,14.78
2022-08-10T02:02:34.131Z,14.80
2022-08-10T02:05:05.150Z,14.82
2022-08-10T02:07:33.465Z,14.77
2022-08-10T02:10:09.656Z,14.78
2022-08-10T02:12:39.755Z,14.72
2022-08-10T02:15:11.149Z,14.71
2022-08-10T02:17:59.093Z,14.77
2022-08-10T02:20:36.808Z,14.71
2022-08-10T02:23:08.859Z,14.69
2022-08-10T02:25:40.648Z,14.77
2022-08-10T02:28:29.992Z,14.76
2022-08-10T02:31:06.923Z,14.80
2022-08-10T02:33:38.936Z,14.82
2022-08-10T02:36:27.077Z,14.82
2022-08-10T02:39:00.018Z,14.72
2022-08-10T02:45:02.152Z,14.63
2022-08-10T02:45:23.851Z,14.32
2022-08-10T02:47:26.595Z,14.09
2022-08-10T02:50:08.332Z,13.94
2022-08-10T02:52:44.398Z,13.89
2022-08-10T02:55:19.865Z,13.89
2022-08-10T02:58:15.298Z,13.92
2022-08-10T03:00:48.611Z,13.85
2022-08-10T03:03:22.564Z,13.73
2022-08-10T03:05:53.568Z,13.72
2022-08-10T03:08:26.460Z,13.75
2022-08-10T03:10:56.569Z,13.72
2022-08-10T03:13:24.864Z,13.66
2022-08-10T03:15:52.036Z,13.69
2022-08-10T03:18:22.827Z,13.77
2022-08-10T03:20:51.288Z,13.79
2022-08-10T03:23:23.366Z,13.72
2022-08-10T03:25:55.249Z,13.67
2022-08-10T03:28:24.717Z,13.55
2022-08-10T03:30:52.995Z,13.50
2022-08-10T03:33:22.275Z,13.45
2022-08-10T03:36:43.365Z,13.42
2022-08-10T03:38:37.685Z,13.31
2022-08-10T03:41:08.603Z,13.22
2022-08-10T03:43:36.660Z,13.12
2022-08-10T03:46:08.037Z,13.03
2022-08-10T03:48:49.237Z,12.97
2022-08-10T03:51:18.800Z,12.96
2022-08-10T03:54:04.335Z,13.03
2022-08-10T03:56:38.791Z,13.07
2022-08-10T03:59:08.005Z,13.02
2022-08-10T04:02:44.075Z,12.94
2022-08-10T04:04:24.492Z,12.93
2022-08-10T04:06:54.651Z,13.04
2022-08-10T04:09:23.879Z,13.19
2022-08-10T04:11:50.648Z,13.26
2022-08-10T04:14:38.334Z,13.35
2022-08-10T04:17:04.266Z,13.43
2022-08-10T04:19:40.991Z,13.56
2022-08-10T04:22:14.796Z,13.64
2022-08-10T04:24:43.279Z,13.72
2022-08-10T04:27:10.313Z,13.74
2022-08-10T04:29:37.610Z,13.79
2022-08-10T04:32:06.546Z,13.78
2022-08-10T04:34:35.502Z,13.82
2022-08-10T04:37:09.047Z,13.88
2022-08-10T04:39:37.476Z,13.83
2022-08-10T04:42:06.144Z,13.73
2022-08-10T04:44:33.814Z,13.76
2022-08-10T04:47:00.600Z,13.83
2022-08-10T04:49:55.704Z,13.96
2022-08-10T04:52:14.944Z,14.17
2022-08-10T04:54:41.924Z,14.37
2022-08-10T04:57:09.054Z,14.59
2022-08-10T04:59:36.302Z,14.86
2022-08-10T05:02:21.590Z,15.05
2022-08-10T05:04:50.266Z,15.28
2022-08-10T05:07:18.665Z,15.47
2022-08-10T05:10:01.859Z,15.62
2022-08-10T05:12:35.698Z,15.83
2022-08-10T05:15:11.669Z,16.02
2022-08-10T05:17:40.216Z,16.01
2022-08-10T05:20:09.910Z,16.21
2022-08-10T05:22:39.416Z,16.42
2022-08-10T05:25:11.239Z,16.52
2022-08-10T05:27:39.322Z,16.62
2022-08-10T05:30:07.659Z,16.91
2022-08-10T05:32:56.411Z,17.09
2022-08-10T05:35:23.141Z,17.35
2022-08-10T05:38:09.349Z,17.49
2022-08-10T05:40:46.306Z,17.66
2022-08-10T05:43:20.078Z,17.87
2022-08-10T05:46:17.573Z,18.06
2022-08-10T05:48:55.363Z,18.21
2022-08-10T05:51:23.648Z,18.26
2022-08-10T05:54:01.432Z,18.13
2022-08-10T05:56:55.326Z,18.27
2022-08-10T06:00:09.071Z,18.23
2022-08-10T06:02:34.042Z,18.35
2022-08-10T06:04:58.606Z,18.39
2022-08-10T06:07:27.451Z,18.69
2022-08-10T06:09:59.317Z,18.79
2022-08-10T06:12:30.878Z,18.79
2022-08-10T06:15:05.732Z,19.01
2022-08-10T06:17:33.175Z,18.96
2022-08-10T06:20:01.221Z,18.93
2022-08-10T06:22:32.350Z,19.04
2022-08-10T06:27:49.343Z,19.48
2022-08-10T06:30:20.420Z,19.57
2022-08-10T06:32:53.582Z,19.66
2022-08-10T06:35:21.305Z,19.53
2022-08-10T06:37:51.850Z,19.53
2022-08-10T06:40:20.278Z,19.71
2022-08-10T06:42:50.037Z,19.73
2022-08-10T06:45:21.358Z,19.69
2022-08-10T06:47:51.043Z,20.01
2022-08-10T06:50:45.306Z,20.09
2022-08-10T06:53:18.374Z,20.32
2022-08-10T06:55:55.569Z,20.37
2022-08-10T06:58:29.394Z,20.44
2022-08-10T07:00:56.948Z,20.79
2022-08-10T07:03:30.716Z,20.80
2022-08-10T07:05:59.914Z,21.14
2022-08-10T07:08:31.492Z,21.35
2022-08-10T07:10:59.358Z,21.02
2022-08-10T07:14:17.315Z,21.05
2022-08-10T07:16:16.496Z,21.09
2022-08-10T07:18:44.946Z,21.38
2022-08-10T07:21:13.716Z,21.36
2022-08-10T07:23:54.942Z,21.33
2022-08-10T07:26:24.978Z,21.56
2022-08-10T07:28:52.746Z,21.87
2022-08-10T07:31:54.607Z,21.75
2022-08-10T07:34:09.401Z,21.55
2022-08-10T07:36:40.232Z,22.14
2022-08-10T07:39:08.956Z,22.09
2022-08-10T07:41:41.275Z,21.87
2022-08-10T07:44:11.362Z,21.83
2022-08-10T07:46:43.272Z,22.27
2022-08-10T07:49:20.510Z,22.14
2022-08-10T07:51:54.534Z,22.77
2022-08-10T07:54:25.292Z,22.41
2022-08-10T07:56:56.417Z,22.61
2022-08-10T07:59:28.521Z,22.69
2022-08-10T08:01:56.325Z,22.69
2022-08-10T08:04:24.885Z,22.73
2022-08-10T08:06:53.646Z,22.84
2022-08-10T08:09:22.077Z,23.09
2022-08-10T08:11:50.159Z,23.28
2022-08-10T08:14:19.111Z,23.34
2022-08-10T08:16:48.934Z,24.02
2022-08-10T08:19:37.959Z,23.50
2022-08-10T08:24:11.140Z,24.02
2022-08-10T08:24:56.948Z,24.03
2022-08-10T08:27:26.215Z,24.52
2022-08-10T08:29:53.776Z,24.42
2022-08-10T08:32:26.383Z,24.68
2022-08-10T08:34:59.688Z,25.05
2022-08-10T08:38:31.940Z,25.16
2022-08-10T08:40:24.512Z,24.90
2022-08-10T08:43:27.308Z,24.56
2022-08-10T08:46:18.290Z,24.73
2022-08-10T08:49:04.811Z,24.86
2022-08-10T08:52:09.715Z,25.45
2022-08-10T08:55:05.209Z,25.92
2022-08-10T08:58:20.453Z,26.20
2022-08-10T09:01:06.401Z,27.43
2022-08-10T09:03:58.034Z,27.68
2022-08-10T09:06:52.548Z,26.18
2022-08-10T09:09:38.508Z,27.50
2022-08-10T09:12:33.969Z,28.49
2022-08-10T09:15:09.570Z,27.05
2022-08-10T09:18:05.570Z,27.65
2022-08-10T09:20:49.340Z,27.37
2022-08-10T09:24:04.038Z,27.38
2022-08-10T09:26:22.874Z,27.34
2022-08-10T09:29:12.266Z,27.64
2022-08-10T09:36:13.657Z,27.23
2022-08-10T09:36:19.533Z,27.20
2022-08-10T09:38:04.200Z,26.44
2022-08-10T09:41:06.276Z,27.22
2022-08-10T09:43:43.779Z,28.63
2022-08-10T09:46:22.770Z,28.01
2022-08-10T09:49:09.520Z,28.84
2022-08-10T09:51:55.116Z,28.86
2022-08-10T09:54:57.302Z,28.73
2022-08-10T09:57:46.739Z,28.78
2022-08-10T10:00:20.606Z,28.13
2022-08-10T10:03:17.753Z,27.44
2022-08-10T10:06:09.915Z,27.85
2022-08-10T10:08:53.799Z,28.11
2022-08-10T10:12:09.717Z,28.17
2022-08-10T10:15:09.744Z,27.17
2022-08-10T10:18:02.798Z,27.82
2022-08-10T10:20:53.991Z,27.88
2022-08-10T10:23:55.178Z,28.06
2022-08-10T10:26:50.286Z,28.29
2022-08-10T10:29:56.414Z,28.53
2022-08-10T10:32:37.328Z,28.26
2022-08-10T10:35:23.549Z,28.07
2022-08-10T10:38:02.639Z,28.04
2022-08-10T10:40:52.808Z,28.45
2022-08-10T10:43:54.573Z,28.50
2022-08-10T10:46:48.311Z,27.68
2022-08-10T10:49:35.427Z,28.09
2022-08-10T10:52:14.861Z,29.42
2022-08-10T10:54:59.840Z,29.99
2022-08-10T10:58:09.015Z,29.75
2022-08-10T11:00:55.767Z,30.30
2022-08-10T11:03:41.102Z,29.52
2022-08-10T11:06:40.545Z,28.97
2022-08-10T11:10:04.877Z,28.87
2022-08-10T11:12:18.266Z,29.56
2022-08-10T11:15:09.360Z,28.97
2022-08-10T11:17:48.956Z,28.98
2022-08-10T11:20:54.211Z,30.96
2022-08-10T11:23:41.878Z,30.15
2022-08-10T11:26:35.328Z,30.11
2022-08-10T11:29:18.498Z,30.64
2022-08-10T11:31:55.537Z,30.53
2022-08-10T11:34:49.205Z,29.65
2022-08-10T11:38:31.195Z,29.29
2022-08-10T11:40:50.771Z,28.63
2022-08-10T11:43:22.634Z,28.80
2022-08-10T11:46:27.674Z,30.20
2022-08-10T11:49:13.770Z,28.82
2022-08-10T11:51:48.333Z,28.76
2022-08-10T11:54:37.215Z,30.62
2022-08-10T11:57:04.249Z,29.18
2022-08-10T11:59:57.888Z,29.59
2022-08-10T12:02:44.653Z,29.76
2022-08-10T12:05:48.214Z,30.45
2022-08-10T12:10:12.096Z,30.25
2022-08-10T12:11:05.636Z,30.49
2022-08-10T12:13:58.487Z,31.34
2022-08-10T12:16:35.022Z,29.69
2022-08-10T12:19:08.807Z,29.91
2022-08-10T12:21:42.868Z,29.19
2022-08-10T12:24:18.445Z,29.57
2022-08-10T12:27:19.997Z,30.66
2022-08-10T12:29:59.175Z,30.58
2022-08-10T12:32:35.596Z,31.25
2022-08-10T12:35:35.725Z,31.20
2022-08-10T12:38:15.000Z,31.10
2022-08-10T12:40:48.645Z,31.70
2022-08-10T12:44:05.051Z,32.02
2022-08-10T12:46:32.347Z,31.97
2022-08-10T12:49:20.141Z,31.48
2022-08-10T12:51:55.794Z,32.07
2022-08-10T12:54:32.546Z,30.95
2022-08-10T12:57:03.591Z,31.07
2022-08-10T12:59:32.064Z,30.13
2022-08-10T13:02:10.249Z,28.79
2022-08-10T13:04:40.511Z,31.15
2022-08-10T13:07:10.033Z,32.37
2022-08-10T13:09:56.542Z,32.38
2022-08-10T13:12:44.455Z,31.63
2022-08-10T13:15:47.999Z,31.55
2022-08-10T13:18:06.919Z,31.05
2022-08-10T13:20:52.177Z,30.78
2022-08-10T13:23:27.510Z,31.52
2022-08-10T13:25:58.206Z,31.39
2022-08-10T13:28:39.609Z,31.03
2022-08-10T13:31:16.794Z,32.00
2022-08-10T13:34:39.510Z,31.53
2022-08-10T13:36:47.621Z,33.98
2022-08-10T13:39:19.759Z,33.22
2022-08-10T13:41:49.250Z,34.87
2022-08-10T13:44:28.226Z,33.71
2022-08-10T13:46:56.413Z,32.75
2022-08-10T13:49:23.520Z,33.05
2022-08-10T13:51:56.970Z,32.60
2022-08-10T13:54:37.169Z,32.39
2022-08-10T13:57:05.198Z,32.32
2022-08-10T14:00:37.592Z,33.41
2022-08-10T14:02:25.720Z,31.63
2022-08-10T14:04:55.706Z,31.25
2022-08-10T14:07:24.121Z,29.88
2022-08-10T14:09:53.179Z,31.31
2022-08-10T14:12:33.386Z,31.56
2022-08-10T14:15:03.147Z,31.14
2022-08-10T14:17:30.525Z,30.40
2022-08-10T14:19:59.478Z,30.95
2022-08-10T14:22:33.901Z,31.87
2022-08-10T14:25:19.347Z,31.46
2022-08-10T14:28:01.929Z,29.64
2022-08-10T14:30:31.326Z,29.97
2022-08-10T14:33:04.043Z,30.19
2022-08-10T14:36:19.106Z,29.29
2022-08-10T14:38:26.672Z,29.83
2022-08-10T14:40:57.001Z,30.72
2022-08-10T14:43:32.966Z,30.33
2022-08-10T14:46:06.469Z,29.40
2022-08-10T14:48:39.913Z,30.14
2022-08-10T14:51:10.862Z,30.97
2022-08-10T14:53:39.992Z,31.00
2022-08-10T14:56:14.457Z,30.95
2022-08-10T14:59:05.426Z,31.55
2022-08-10T15:02:01.150Z,31.70
2022-08-10T15:04:26.592Z,30.88
2022-08-10T15:07:00.118Z,30.53
2022-08-10T15:10:01.168Z,31.77
2022-08-10T15:12:33.072Z,32.59
2022-08-10T15:15:01.411Z,33.33
2022-08-10T15:17:37.637Z,31.76
2022-08-10T15:20:16.722Z,31.91
2022-08-10T15:22:50.878Z,31.23
2022-08-10T15:25:24.646Z,31.13
2022-08-10T15:28:17.056Z,31.01
2022-08-10T15:30:47.447Z,30.52
2022-08-10T15:33:57.931Z,29.89
2022-08-10T15:36:58.720Z,29.72
2022-08-10T15:40:22.305Z,29.35
2022-08-10T15:42:23.899Z,29.13
2022-08-10T15:44:54.019Z,28.57
2022-08-10T15:47:45.307Z,28.56
2022-08-10T15:50:34.441Z,26.76
2022-08-10T15:53:28.079Z,26.36
2022-08-10T15:55:58.744Z,26.04
2022-08-10T15:58:39.317Z,25.21
2022-08-10T16:02:13.970Z,24.84
2022-08-10T16:04:49.691Z,24.46
2022-08-10T16:07:21.801Z,24.55
2022-08-10T16:10:24.577Z,24.50
2022-08-10T16:12:59.790Z,24.12
2022-08-10T16:15:30.259Z,24.22
2022-08-10T16:18:09.625Z,24.14
2022-08-10T16:20:54.830Z,23.99
2022-08-10T16:23:29.320Z,23.83
2022-08-10T16:26:04.666Z,23.76
2022-08-10T16:28:51.823Z,23.36
2022-08-10T16:31:22.385Z,23.28
2022-08-10T16:33:55.746Z,23.44
2022-08-10T16:36:32.110Z,23.38
2022-08-10T16:39:00.241Z,23.36
2022-08-10T16:42:05.241Z,23.78
2022-08-10T16:44:19.557Z,23.20
2022-08-10T16:46:47.503Z,22.66
2022-08-10T16:49:16.706Z,22.58
2022-08-10T16:51:49.271Z,22.52
2022-08-10T16:54:27.314Z,22.38
2022-08-10T16:57:01.307Z,22.38
2022-08-10T16:59:31.145Z,22.27
2022-08-10T17:02:00.372Z,22.10
2022-08-10T17:04:29.355Z,22.07
2022-08-10T17:06:58.290Z,21.99
2022-08-10T17:09:32.028Z,21.84
2022-08-10T17:12:04.277Z,21.75
2022-08-10T17:14:31.400Z,21.67
2022-08-10T17:17:00.564Z,21.56
2022-08-10T17:19:30.207Z,21.58
2022-08-10T17:21:59.644Z,21.54
2022-08-10T17:24:34.335Z,21.52
2022-08-10T17:28:24.394Z,21.47
2022-08-10T17:30:04.646Z,21.45
2022-08-10T17:32:44.807Z,21.38
2022-08-10T17:35:14.530Z,21.35
2022-08-10T17:37:48.555Z,21.30
2022-08-10T17:40:18.924Z,21.30
2022-08-10T17:42:50.444Z,21.23
2022-08-10T17:45:47.816Z,21.15
2022-08-10T17:48:09.696Z,21.06
2022-08-10T17:50:38.059Z,20.94
2022-08-10T17:53:08.307Z,20.92
2022-08-10T17:55:38.498Z,20.82
2022-08-10T17:58:13.655Z,20.80
2022-08-10T18:00:46.034Z,20.79
2022-08-10T18:03:25.055Z,20.77
2022-08-10T18:05:56.224Z,20.73
2022-08-10T18:08:32.057Z,20.60
2022-08-10T18:11:00.584Z,20.60
2022-08-10T18:13:55.155Z,20.50
2022-08-10T18:16:24.851Z,20.48
2022-08-10T18:18:58.354Z,20.42
2022-08-10T18:21:30.732Z,20.28
2022-08-10T18:24:07.707Z,20.25
2022-08-10T18:26:41.030Z,20.16
2022-08-10T18:29:14.014Z,20.06
2022-08-10T18:31:47.573Z,19.99
2022-08-10T18:34:19.802Z,19.92
2022-08-10T18:36:48.617Z,19.80
2022-08-10T18:39:21.893Z,19.66
2022-08-10T18:42:00.333Z,19.60
2022-08-10T18:44:41.064Z,19.58
2022-08-10T18:47:16.179Z,19.45
2022-08-10T18:49:59.375Z,19.38
2022-08-10T18:52:29.702Z,19.31
2022-08-10T18:55:14.398Z,19.20
2022-08-10T18:58:16.162Z,19.10
2022-08-10T19:01:04.764Z,18.99
2022-08-10T19:03:59.294Z,18.72
2022-08-10T19:06:55.597Z,18.65
2022-08-10T19:09:45.865Z,18.45
2022-08-10T19:12:31.638Z,18.26
2022-08-10T19:15:36.301Z,18.21
2022-08-10T19:18:31.207Z,18.17
2022-08-10T19:21:08.130Z,18.18
2022-08-10T19:23:43.651Z,18.14
2022-08-10T19:26:44.129Z,18.05
2022-08-10T19:30:11.165Z,18.03
2022-08-10T19:32:37.406Z,17.98
2022-08-10T19:35:11.046Z,17.80
2022-08-10T19:38:31.996Z,17.61
2022-08-10T19:41:12.801Z,17.52
2022-08-10T19:44:03.088Z,17.58
2022-08-10T19:47:11.373Z,17.55
2022-08-10T19:49:45.694Z,17.50
2022-08-10T19:52:27.208Z,17.46
2022-08-10T19:55:17.600Z,17.45
2022-08-10T19:57:49.669Z,17.41
2022-08-10T20:00:22.950Z,17.33
2022-08-10T20:03:03.116Z,17.16
2022-08-10T20:05:39.162Z,17.08
2022-08-10T20:08:13.659Z,17.07
2022-08-10T20:11:46.236Z,17.07
2022-08-10T20:14:22.497Z,17.17
2022-08-10T20:16:53.508Z,17.07
2022-08-10T20:19:53.460Z,17.02
2022-08-10T20:22:34.884Z,17.04
2022-08-10T20:25:06.057Z,17.06
2022-08-10T20:27:59.556Z,17.08
2022-08-10T20:30:32.506Z,17.13
2022-08-10T20:33:12.304Z,17.17
2022-08-10T20:35:53.289Z,17.23
2022-08-10T20:38:29.011Z,17.26
2022-08-10T20:41:33.891Z,17.19
2022-08-10T20:44:31.778Z,17.23
2022-08-10T20:47:36.929Z,17.27
2022-08-10T20:50:35.044Z,17.20
2022-08-10T20:53:14.996Z,17.24
2022-08-10T20:55:54.202Z,17.26
2022-08-10T20:58:58.448Z,17.20
2022-08-10T21:02:06.230Z,17.14
2022-08-10T21:04:33.466Z,17.10
2022-08-10T21:07:43.966Z,17.08
2022-08-10T21:10:16.316Z,17.20
2022-08-10T21:12:44.176Z,17.23
2022-08-10T21:15:55.653Z,17.17
2022-08-10T21:18:25.726Z,17.25
2022-08-10T21:21:01.510Z,17.12
2022-08-10T21:23:32.243Z,17.24
2022-08-10T21:26:13.508Z,17.17
2022-08-10T21:28:50.214Z,17.12
2022-08-10T21:31:38.797Z,17.03
2022-08-10T21:34:32.122Z,17.01
2022-08-10T21:37:08.024Z,16.95
2022-08-10T21:39:50.727Z,16.91
2022-08-10T21:42:51.206Z,16.81
2022-08-10T21:45:58.242Z,16.72
2022-08-10T21:48:57.815Z,16.67
2022-08-10T21:52:06.792Z,16.61
2022-08-10T21:55:02.180Z,16.58
2022-08-10T21:58:05.374Z,16.53
2022-08-10T22:00:55.822Z,16.48
2022-08-10T22:03:42.117Z,16.53
2022-08-10T22:06:31.055Z,16.50
2022-08-10T22:09:26.543Z,16.48
2022-08-10T22:12:24.906Z,16.47
2022-08-10T22:16:03.826Z,16.42
2022-08-10T22:18:58.741Z,16.30
2022-08-10T22:22:27.420Z,16.19
2022-08-10T22:25:29.358Z,16.10
2022-08-10T22:28:18.096Z,16.09
2022-08-10T22:31:30.955Z,16.02
2022-08-10T22:34:51.006Z,15.89
2022-08-10T22:37:52.616Z,15.92
2022-08-10T22:40:40.978Z,15.94
2022-08-10T22:43:35.562Z,15.90
2022-08-10T22:46:30.427Z,15.91
2022-08-10T22:49:00.107Z,15.81
2022-08-10T22:52:10.359Z,15.76
2022-08-10T22:55:21.236Z,15.79
2022-08-10T22:58:08.674Z,15.78
2022-08-10T23:00:37.239Z,15.81
2022-08-10T23:03:15.924Z,15.81
2022-08-10T23:05:57.586Z,15.84
2022-08-10T23:08:32.042Z,15.85
2022-08-10T23:11:08.495Z,15.87
2022-08-10T23:13:40.786Z,15.87
2022-08-10T23:16:36.944Z,15.86
2022-08-10T23:19:37.999Z,15.88
2022-08-10T23:22:13.806Z,15.91
2022-08-10T23:25:15.130Z,15.90
2022-08-10T23:27:46.733Z,15.92
2022-08-10T23:30:17.438Z,15.89
2022-08-10T23:32:51.289Z,15.84
2022-08-10T23:36:31.003Z,15.82
2022-08-10T23:38:12.393Z,15.85
2022-08-10T23:40:45.442Z,15.93
2022-08-10T23:43:18.889Z,15.91
2022-08-10T23:45:53.756Z,15.92
2022-08-10T23:48:29.584Z,15.91
2022-08-10T23:51:01.853Z,15.85
2022-08-10T23:53:41.325Z,15.82
2022-08-10T23:56:12.521Z,15.81
2022-08-10T23:58:44.725Z,15.79
